Gandy, Nebraska
Current Conditions -  °F | °C
As of 7:15 PM on Saturday 20 Dec 2014 (Local Time) from KTIF Reporting Station
Clear Clear  
Wind Chill: 33°   Ceiling: Unl
Heat Index: 33°   Visibility: 10mi
Dew Point: 29°   Wind: 3mph
Humidity: 87%   Direction: 270°W
Pressure: 29.91"   Gusts: NA
Location:  41.5665°N, 100.482°W
Report Text: KTIF 210115Z AUTO 27003KT 10SM CLR 01/M01 A2991 RMK AO2 T00051015
Loading
Personal Weather Stations






























Interactive Weather Map New forecast layout! Learn more

10-Day Weather Forecast

Advertisements
Track Severe Weather on mobile